createdAt,value
2018-02-22T00:01:37.480Z,75.03
2018-02-22T00:04:04.644Z,85.95
2018-02-22T00:06:33.024Z,79.97
2018-02-22T00:09:01.280Z,90.60
2018-02-22T00:11:29.473Z,74.45
2018-02-22T00:14:00.476Z,86.37
2018-02-22T00:16:33.700Z,80.43
2018-02-22T00:19:01.928Z,82.22
2018-02-22T00:21:39.072Z,89.28
2018-02-22T00:24:06.887Z,82.22
2018-02-22T00:26:36.427Z,78.53
2018-02-22T00:29:06.795Z,83.10
2018-02-22T00:31:34.846Z,77.10
2018-02-22T00:34:03.629Z,78.47
2018-02-22T00:36:31.843Z,75.80
2018-02-22T00:39:01.172Z,83.93
2018-02-22T00:41:32.596Z,90.53
2018-02-22T00:44:03.246Z,79.75
2018-02-22T00:46:32.428Z,77.37
2018-02-22T00:49:01.236Z,85.25
2018-02-22T00:51:30.612Z,83.55
2018-02-22T00:56:44.975Z,74.80
2018-02-22T00:59:13.534Z,85.18
2018-02-22T01:01:41.001Z,91.37
2018-02-22T01:04:07.485Z,88.45
2018-02-22T01:06:35.952Z,83.07
2018-02-22T01:09:03.918Z,90.50
2018-02-22T01:11:36.372Z,90.70
2018-02-22T01:14:06.266Z,86.40
2018-02-22T01:16:37.037Z,83.55
2018-02-22T01:19:04.826Z,82.93
2018-02-22T01:21:32.549Z,76.18
2018-02-22T01:24:01.314Z,80.03
2018-02-22T01:26:31.746Z,73.50
2018-02-22T01:29:01.866Z,67.82
2018-02-22T01:31:30.851Z,75.57
2018-02-22T01:33:59.166Z,66.97
2018-02-22T01:36:32.147Z,80.20
2018-02-22T01:39:02.224Z,78.72
2018-02-22T01:41:32.310Z,79.57
2018-02-22T01:44:05.295Z,80.62
2018-02-22T01:46:36.285Z,72.12
2018-02-22T01:49:05.531Z,81.63
2018-02-22T01:51:35.384Z,74.60
2018-02-22T01:54:04.487Z,76.22
2018-02-22T01:56:34.306Z,88.70
2018-02-22T01:59:03.700Z,80.97
2018-02-22T02:01:33.701Z,88.18
2018-02-22T02:04:01.474Z,90.53
2018-02-22T02:06:29.245Z,75.60
2018-02-22T02:09:00.466Z,81.53
2018-02-22T02:11:30.312Z,89.60
2018-02-22T02:13:59.495Z,76.28
2018-02-22T02:16:27.946Z,83.03
2018-02-22T02:18:57.029Z,87.97
2018-02-22T02:21:24.206Z,74.12
2018-02-22T02:23:50.472Z,78.75
2018-02-22T02:26:17.393Z,95.43
2018-02-22T02:28:45.206Z,89.55
2018-02-22T02:31:12.697Z,80.90
2018-02-22T02:33:40.458Z,79.07
2018-02-22T02:36:09.214Z,76.40
2018-02-22T02:38:36.177Z,66.55
2018-02-22T02:41:03.442Z,83.05
2018-02-22T02:43:31.678Z,72.55
2018-02-22T02:45:58.898Z,59.70
2018-02-22T02:48:27.682Z,68.15
2018-02-22T02:50:55.094Z,77.80
2018-02-22T02:53:21.391Z,74.32
2018-02-22T02:55:48.052Z,77.40
2018-02-22T02:58:14.217Z,65.22
2018-02-22T03:00:40.382Z,71.28
2018-02-22T03:03:06.505Z,72.45
2018-02-22T03:05:32.622Z,66.10
2018-02-22T03:07:59.526Z,69.37
2018-02-22T03:10:25.676Z,61.10
2018-02-22T03:12:51.825Z,70.07
2018-02-22T03:15:17.995Z,64.40
2018-02-22T03:17:44.207Z,68.22
2018-02-22T03:20:10.331Z,64.75
2018-02-22T03:22:36.480Z,66.20
2018-02-22T03:25:02.661Z,58.33
2018-02-22T03:27:28.791Z,66.72
2018-02-22T03:29:55.652Z,69.68
2018-02-22T03:32:22.513Z,64.50
2018-02-22T03:34:49.379Z,76.97
2018-02-22T03:37:15.525Z,71.97
2018-02-22T03:39:41.647Z,63.38
2018-02-22T03:42:08.523Z,64.80
2018-02-22T03:44:34.658Z,57.47
2018-02-22T03:47:01.925Z,57.25
2018-02-22T03:49:30.718Z,60.70
2018-02-22T03:51:58.787Z,66.90
2018-02-22T03:54:26.427Z,67.57
2018-02-22T03:56:53.567Z,72.18
2018-02-22T03:59:19.843Z,64.68
2018-02-22T04:01:45.985Z,61.90
2018-02-22T04:04:12.155Z,57.95
2018-02-22T04:06:38.345Z,60.97
2018-02-22T04:09:04.508Z,58.47
2018-02-22T04:11:31.432Z,58.38
2018-02-22T04:13:57.610Z,64.82
2018-02-22T04:16:26.203Z,71.60
2018-02-22T04:18:55.827Z,57.70
2018-02-22T04:21:24.692Z,65.70
2018-02-22T04:23:51.080Z,64.97
2018-02-22T04:26:17.993Z,57.65
2018-02-22T04:28:44.965Z,68.35
2018-02-22T04:31:11.084Z,64.80
2018-02-22T04:33:38.580Z,70.85
2018-02-22T04:36:04.890Z,72.65
2018-02-22T04:38:31.023Z,67.12
2018-02-22T04:40:57.124Z,72.25
2018-02-22T04:43:24.007Z,67.20
2018-02-22T04:45:50.174Z,71.75
2018-02-22T04:48:16.303Z,63.17
2018-02-22T04:50:42.742Z,65.57
2018-02-22T04:53:08.884Z,71.10
2018-02-22T04:55:34.987Z,79.97
2018-02-22T04:58:01.895Z,62.92
2018-02-22T05:00:28.020Z,72.12
2018-02-22T05:02:54.237Z,58.85
2018-02-22T05:05:20.428Z,61.20
2018-02-22T05:07:46.564Z,55.78
2018-02-22T05:10:12.684Z,61.20
2018-02-22T05:12:38.842Z,52.47
2018-02-22T05:15:05.060Z,68.47
2018-02-22T05:17:31.159Z,61.37
2018-02-22T05:19:58.801Z,54.33
2018-02-22T05:22:25.888Z,66.15
2018-02-22T05:24:54.433Z,52.92
2018-02-22T05:27:21.575Z,65.07
2018-02-22T05:29:48.532Z,55.33
2018-02-22T05:32:14.679Z,56.45
2018-02-22T05:34:41.056Z,52.97
2018-02-22T05:37:07.211Z,62.13
2018-02-22T05:39:33.373Z,61.17
2018-02-22T05:42:00.306Z,59.05
2018-02-22T05:44:26.440Z,60.67
2018-02-22T05:46:52.593Z,60.85
2018-02-22T05:49:18.801Z,65.85
2018-02-22T05:51:45.470Z,55.92
2018-02-22T05:54:13.182Z,50.08
2018-02-22T05:56:42.021Z,59.63
2018-02-22T05:59:08.569Z,63.83
2018-02-22T06:01:35.078Z,52.13
2018-02-22T06:04:01.816Z,53.17
2018-02-22T06:06:30.000Z,55.42
2018-02-22T06:08:58.494Z,56.25
2018-02-22T06:11:26.516Z,52.80
2018-02-22T06:13:53.827Z,57.00
2018-02-22T06:16:20.165Z,52.17
2018-02-22T06:18:46.850Z,58.63
2018-02-22T06:21:13.760Z,46.15
2018-02-22T06:23:40.584Z,49.78
2018-02-22T06:26:07.072Z,49.92
2018-02-22T06:28:34.208Z,43.97
2018-02-22T06:31:00.871Z,43.17
2018-02-22T06:33:27.747Z,51.60
2018-02-22T06:35:54.441Z,49.70
2018-02-22T06:38:21.472Z,50.38
2018-02-22T06:40:47.600Z,49.03
2018-02-22T06:43:14.705Z,51.70
2018-02-22T06:45:41.585Z,50.75
2018-02-22T06:48:12.769Z,54.33
2018-02-22T06:50:39.373Z,59.42
2018-02-22T06:53:05.778Z,54.17
2018-02-22T06:55:32.310Z,43.80
2018-02-22T06:57:59.173Z,59.10
2018-02-22T07:00:25.523Z,45.72
2018-02-22T07:02:52.042Z,45.65
2018-02-22T07:05:18.196Z,54.60
2018-02-22T07:07:44.363Z,48.38
2018-02-22T07:10:12.525Z,47.28
2018-02-22T07:12:38.893Z,41.92
2018-02-22T07:15:05.402Z,44.30
2018-02-22T07:17:31.693Z,45.08
2018-02-22T07:19:58.570Z,41.58
2018-02-22T07:22:24.788Z,40.50
2018-02-22T07:24:51.935Z,45.53
2018-02-22T07:27:18.083Z,39.63
2018-02-22T07:29:44.462Z,58.63
2018-02-22T07:32:10.610Z,41.00
2018-02-22T07:34:36.719Z,46.88
2018-02-22T07:37:02.860Z,37.47
2018-02-22T07:39:29.726Z,40.05
2018-02-22T07:41:55.856Z,44.22
2018-02-22T07:44:23.712Z,44.35
2018-02-22T07:46:49.963Z,58.55
2018-02-22T07:49:16.888Z,43.72
2018-02-22T07:51:43.088Z,48.53
2018-02-22T07:54:09.336Z,40.25
2018-02-22T07:56:35.873Z,40.20
2018-02-22T07:59:02.020Z,33.13
2018-02-22T08:01:28.199Z,41.92
2018-02-22T08:03:54.456Z,37.80
2018-02-22T08:06:20.660Z,41.60
2018-02-22T08:11:50.791Z,33.53
2018-02-22T08:14:17.066Z,38.38
2018-02-22T08:16:48.698Z,44.33
2018-02-22T08:19:17.827Z,33.08
2018-02-22T08:21:45.985Z,37.67
2018-02-22T08:24:21.470Z,34.15
2018-02-22T08:26:47.729Z,34.47
2018-02-22T08:29:14.065Z,43.90
2018-02-22T08:31:40.284Z,33.85
2018-02-22T08:34:07.231Z,31.80
2018-02-22T08:36:33.575Z,33.10
2018-02-22T08:39:01.274Z,41.97
2018-02-22T08:41:27.968Z,32.40
2018-02-22T08:46:31.698Z,34.20
2018-02-22T08:48:58.400Z,45.10
2018-02-22T08:51:37.820Z,39.78
2018-02-22T08:54:05.112Z,31.70
2018-02-22T08:56:34.467Z,29.00
2018-02-22T08:59:04.245Z,44.03
2018-02-22T09:01:33.301Z,26.10
2018-02-22T09:04:02.565Z,29.65
2018-02-22T09:06:35.373Z,24.95
2018-02-22T09:09:04.492Z,28.98
2018-02-22T09:11:35.054Z,43.60
2018-02-22T09:14:05.420Z,25.92
2018-02-22T09:16:36.486Z,31.08
2018-02-22T09:19:05.915Z,33.05
2018-02-22T09:21:35.142Z,30.10
2018-02-22T09:24:04.429Z,40.40
2018-02-22T09:26:33.882Z,37.53
2018-02-22T09:29:01.266Z,25.50
2018-02-22T09:31:28.228Z,35.10
2018-02-22T09:36:30.695Z,29.98
2018-02-22T09:38:58.331Z,54.00
2018-02-22T09:44:05.512Z,45.00
2018-02-22T09:46:34.883Z,27.25
2018-02-22T09:49:02.399Z,38.08
2018-02-22T09:51:36.120Z,31.00
2018-02-22T09:54:04.413Z,30.90
2018-02-22T09:56:34.532Z,32.72
2018-02-22T09:59:04.333Z,36.37
2018-02-22T10:01:34.590Z,44.53
2018-02-22T10:04:02.679Z,45.30
2018-02-22T10:06:35.658Z,34.17
2018-02-22T10:09:05.488Z,34.92
2018-02-22T10:11:33.093Z,58.37
2018-02-22T10:16:35.404Z,25.30
2018-02-22T10:19:04.271Z,35.90
2018-02-22T10:21:31.446Z,25.80
2018-02-22T10:23:58.301Z,33.93
2018-02-22T10:26:26.607Z,30.80
2018-02-22T10:28:53.986Z,29.70
2018-02-22T10:31:20.298Z,25.77
2018-02-22T10:33:47.217Z,24.77
2018-02-22T10:36:13.736Z,31.83
2018-02-22T10:41:48.536Z,33.40
2018-02-22T10:44:18.396Z,26.97
2018-02-22T10:46:46.681Z,24.30
2018-02-22T10:49:16.272Z,26.43
2018-02-22T10:51:44.215Z,33.00
2018-02-22T10:54:12.121Z,31.90
2018-02-22T10:56:39.326Z,27.63
2018-02-22T10:59:05.640Z,27.17
2018-02-22T11:01:39.769Z,31.67
2018-02-22T11:04:06.050Z,23.77
2018-02-22T11:06:32.236Z,22.50
2018-02-22T11:08:59.240Z,33.23
2018-02-22T11:11:26.155Z,25.90
2018-02-22T11:13:52.332Z,24.30
2018-02-22T11:16:18.524Z,22.20
2018-02-22T11:18:44.704Z,23.70
2018-02-22T11:21:10.836Z,18.13
2018-02-22T11:23:38.412Z,26.50
2018-02-22T11:26:04.630Z,22.20
2018-02-22T11:28:31.553Z,20.47
2018-02-22T11:30:57.756Z,17.40
2018-02-22T11:33:23.989Z,22.10
2018-02-22T11:35:50.159Z,23.87
2018-02-22T11:38:16.334Z,19.20
2018-02-22T11:40:42.505Z,25.43
2018-02-22T11:43:08.839Z,22.23
2018-02-22T11:45:35.016Z,34.70
2018-02-22T11:48:01.122Z,23.80
2018-02-22T11:50:27.996Z,22.73
2018-02-22T11:52:54.139Z,22.10
2018-02-22T11:55:21.402Z,32.80
2018-02-22T11:57:47.587Z,27.87
2018-02-22T12:00:13.691Z,28.90
2018-02-22T12:02:39.859Z,25.47
2018-02-22T12:05:05.999Z,15.30
2018-02-22T12:07:32.292Z,17.10
2018-02-22T12:09:58.960Z,19.90
2018-02-22T12:12:26.033Z,19.87
2018-02-22T12:14:52.838Z,25.70
2018-02-22T12:17:18.993Z,17.20
2018-02-22T12:19:45.224Z,15.57
2018-02-22T12:22:11.340Z,17.47
2018-02-22T12:24:37.467Z,18.63
2018-02-22T12:27:04.920Z,21.43
2018-02-22T12:29:31.417Z,20.87
2018-02-22T12:31:59.289Z,23.17
2018-02-22T12:34:28.606Z,24.03
2018-02-22T12:36:55.358Z,25.97
2018-02-22T12:39:21.547Z,24.50
2018-02-22T12:41:47.711Z,27.20
2018-02-22T12:44:13.868Z,21.63
2018-02-22T12:46:40.314Z,22.03
2018-02-22T12:49:06.518Z,25.00
2018-02-22T12:51:32.648Z,20.53
2018-02-22T12:53:58.875Z,17.13
2018-02-22T12:56:25.050Z,21.70
2018-02-22T12:58:51.423Z,14.73
2018-02-22T13:01:17.787Z,21.73
2018-02-22T13:03:44.569Z,19.20
2018-02-22T13:06:18.412Z,26.27
2018-02-22T13:08:45.546Z,20.90
2018-02-22T13:11:14.033Z,19.40
2018-02-22T13:13:42.476Z,27.53
2018-02-22T13:16:09.980Z,20.03
2018-02-22T13:18:36.503Z,16.50
2018-02-22T13:21:07.503Z,15.40
2018-02-22T13:23:34.240Z,16.90
2018-02-22T13:26:00.716Z,15.97
2018-02-22T13:28:32.368Z,22.00
2018-02-22T13:30:58.767Z,17.20
2018-02-22T13:33:37.815Z,29.03
2018-02-22T13:36:04.593Z,18.13
2018-02-22T13:38:43.378Z,18.13
2018-02-22T13:41:10.083Z,22.47
2018-02-22T13:43:36.288Z,20.23
2018-02-22T13:46:03.315Z,17.13
2018-02-22T13:48:42.151Z,16.43
2018-02-22T13:51:10.734Z,17.97
2018-02-22T13:53:50.225Z,13.60
2018-02-22T20:08:32.831Z,72.75
2018-02-22T20:11:00.683Z,61.13
2018-02-22T23:44:57.397Z,68.10
2018-02-22T23:47:24.299Z,81.63
2018-02-22T23:49:51.263Z,71.10
2018-02-22T23:52:17.504Z,84.32
2018-02-22T23:54:43.755Z,103.57
2018-02-22T23:57:10.150Z,174.07
2018-02-22T23:59:36.501Z,183.07
